Time;durP1;ratioP1;P1;durP2;ratioP2;P2;SDS_P1;SDS_P2;PMS_P1;PMS_P2;Temp;Humidity;BMP_temperature;BMP_pressure;BME280_temperature;BME280_humidity;BME280_pressure;Samples;Min_cycle;Max_cycle;Signal;HPM_P1;HPM_P2
2023/07/14 00:01:19;;;;;;;4.03;1.30;;;;;;;15.02;79.34;149857.59;4956269;28;20238;-61
2023/07/14 00:03:47;;;;;;;5.23;1.47;;;;;;;14.97;77.67;149845.09;4964095;28;20234;-61
2023/07/14 00:06:14;;;;;;;4.37;1.63;;;;;;;15.00;77.53;149851.31;4957113;28;20233;-62
2023/07/14 00:08:42;;;;;;;3.03;1.70;;;;;;;14.99;78.21;149850.09;4960967;28;20288;-62
2023/07/14 00:11:14;;;;;;;3.77;1.40;;;;;;;14.93;78.36;149835.09;4956733;28;20245;-62
2023/07/14 00:13:41;;;;;;;3.93;1.70;;;;;;;14.93;78.24;149833.84;4961193;28;20234;-61
2023/07/14 00:16:16;;;;;;;2.13;1.27;;;;;;;14.91;77.58;149831.34;4958332;28;20266;-61
2023/07/14 00:18:42;;;;;;;3.80;1.60;;;;;;;14.93;77.46;149833.84;4961515;28;20243;-61
2023/07/14 00:21:18;;;;;;;2.30;1.30;;;;;;;14.93;76.91;149833.84;4955703;28;20625;-61
2023/07/14 00:23:45;;;;;;;3.53;1.87;;;;;;;14.95;77.00;149840.09;4961435;28;20284;-61
2023/07/14 00:26:15;;;;;;;2.17;1.30;;;;;;;14.97;77.14;149845.09;4954314;28;20233;-61
2023/07/14 00:28:43;;;;;;;3.60;1.57;;;;;;;14.98;77.67;149846.31;4963986;28;20221;-62
2023/07/14 00:31:14;;;;;;;2.57;1.50;;;;;;;14.97;76.25;149843.81;4956351;28;20235;-62
2023/07/14 00:33:42;;;;;;;2.57;1.30;;;;;;;14.97;75.62;149843.81;4958460;28;20324;-62
2023/07/14 00:36:13;;;;;;;3.60;1.77;;;;;;;15.07;75.18;149867.59;4950256;28;20863;-62
2023/07/14 00:38:41;;;;;;;3.87;1.50;;;;;;;14.98;75.62;149846.31;4958053;28;20237;-62
2023/07/14 00:41:18;;;;;;;4.40;1.43;;;;;;;14.99;75.45;149848.81;4961485;28;20237;-62
2023/07/14 00:43:46;;;;;;;4.37;1.30;;;;;;;14.93;76.59;149835.09;4960284;28;20225;-61
2023/07/14 00:46:24;;;;;;;3.87;1.30;;;;;;;14.90;76.70;149828.84;4959704;28;20550;-62
2023/07/14 00:48:54;;;;;;;3.93;1.63;;;;;;;14.93;77.66;149835.09;4954080;28;20229;-62
2023/07/14 00:51:21;;;;;;;2.83;1.53;;;;;;;14.89;77.24;149826.34;4960585;28;20817;-62
2023/07/14 00:53:49;;;;;;;4.80;1.40;;;;;;;14.91;76.81;149830.13;4960217;28;20306;-62
2023/07/14 00:56:38;;;;;;;4.50;1.60;;;;;;;14.94;78.72;149837.59;4958741;28;20234;-61
2023/07/14 00:59:13;;;;;;;6.60;1.73;;;;;;;14.84;78.96;149813.84;4952428;28;20240;-62
2023/07/14 01:02:13;;;;;;;6.03;1.80;;;;;;;14.76;79.18;149793.91;4949830;28;20231;-62
2023/07/14 01:04:42;;;;;;;6.10;1.50;;;;;;;14.81;78.81;149806.41;4976388;28;20223;-62
2023/07/14 01:07:11;;;;;;;2.80;1.60;;;;;;;14.74;79.46;149788.91;4960329;28;20619;-62
2023/07/14 01:09:41;;;;;;;4.50;1.77;;;;;;;14.76;80.27;149795.13;4976832;28;20233;-62
2023/07/14 01:12:13;;;;;;;4.60;1.40;;;;;;;14.75;79.64;149791.41;4957065;28;20236;-62
2023/07/14 01:14:43;;;;;;;6.33;1.80;;;;;;;14.69;79.59;149776.38;4978863;28;20233;-62
2023/07/14 01:17:10;;;;;;;3.23;1.50;;;;;;;14.69;79.02;149776.38;4976139;28;20250;-62
2023/07/14 01:19:43;;;;;;;4.27;1.53;;;;;;;14.67;78.13;149771.38;4978984;28;20253;-62
2023/07/14 01:22:20;;;;;;;5.80;1.80;;;;;;;14.66;78.17;149768.91;4976975;28;20597;-62
2023/07/14 01:24:54;;;;;;;3.23;1.40;;;;;;;14.67;77.83;149771.38;4958133;28;20228;-62
2023/07/14 01:27:24;;;;;;;6.50;1.70;;;;;;;14.63;78.42;149761.41;4951561;28;20240;-62
2023/07/14 01:29:51;;;;;;;2.47;1.30;;;;;;;14.67;78.55;149771.38;4951879;28;20340;-62
2023/07/14 01:32:20;;;;;;;4.87;1.33;;;;;;;14.69;78.49;149776.38;4958878;28;20248;-62
2023/07/14 01:34:47;;;;;;;3.03;1.50;;;;;;;14.72;78.17;149783.94;4963714;28;20246;-62
2023/07/14 01:37:18;;;;;;;5.30;1.67;;;;;;;14.72;76.73;149783.94;4952998;28;20615;-62
2023/07/14 01:39:45;;;;;;;3.90;1.43;;;;;;;14.83;75.28;149811.41;4972930;28;20222;-62
2023/07/14 01:42:11;;;;;;;4.30;1.60;;;;;;;14.96;74.03;149842.59;4954446;28;20246;-62
2023/07/14 01:44:42;;;;;;;3.03;1.20;;;;;;;15.16;72.08;149891.28;4957506;28;20811;-62
2023/07/14 01:47:12;;;;;;;4.17;1.73;;;;;;;15.28;70.79;149918.78;4950571;28;20226;-62
2023/07/14 01:49:46;;;;;;;3.00;1.30;;;;;;;15.35;71.81;149937.53;4956857;28;20233;-62
2023/07/14 01:52:16;;;;;;;3.83;1.40;;;;;;;15.42;70.21;149953.75;4957098;28;20225;-62
2023/07/14 01:54:45;;;;;;;4.60;1.23;;;;;;;15.46;70.11;149963.75;4950784;28;20921;-62
2023/07/14 01:57:16;;;;;;;3.27;1.50;;;;;;;15.51;69.33;149974.97;4957731;28;20230;-62
2023/07/14 01:59:47;;;;;;;1.43;1.07;;;;;;;15.57;68.88;149989.97;4955163;28;20214;-62
2023/07/14 02:02:20;;;;;;;3.40;1.63;;;;;;;15.69;68.85;150017.47;4958274;28;20236;-62
2023/07/14 02:04:49;;;;;;;7.73;1.67;;;;;;;15.67;68.39;150012.47;4979199;28;20218;-62
2023/07/14 02:07:15;;;;;;;7.73;2.13;;;;;;;15.66;67.90;150011.25;4954981;28;20228;-62
2023/07/14 02:09:44;;;;;;;3.10;1.90;;;;;;;15.67;68.70;150013.72;4961777;28;20245;-62
2023/07/14 02:12:16;;;;;;;6.60;1.40;;;;;;;15.63;68.65;150004.97;4953598;28;20247;-62
2023/07/14 02:14:49;;;;;;;2.97;1.20;;;;;;;15.58;69.13;149992.47;4978468;28;20222;-62
2023/07/14 02:17:25;;;;;;;4.00;1.23;;;;;;;15.53;69.23;149978.75;4951357;28;20231;-62
2023/07/14 02:19:53;;;;;;;2.87;1.30;;;;;;;15.51;70.30;149974.97;4956566;28;20250;-62
2023/07/14 02:22:20;;;;;;;6.43;1.97;;;;;;;15.46;69.94;149963.75;4955876;28;20238;-62
2023/07/14 02:24:48;;;;;;;5.17;1.50;;;;;;;15.50;69.37;149973.75;4956307;28;20284;-62
2023/07/14 02:27:15;;;;;;;3.03;1.77;;;;;;;15.43;69.81;149956.25;4956255;28;20246;-62
2023/07/14 02:29:43;;;;;;;4.17;1.53;;;;;;;15.36;69.58;149938.78;4959797;28;20215;-62
2023/07/14 02:32:18;;;;;;;4.30;1.53;;;;;;;15.32;71.53;149928.78;4956216;28;20266;-62
2023/07/14 02:34:52;;;;;;;6.00;1.60;;;;;;;15.17;74.46;149893.78;4962298;28;20288;-62
2023/07/14 02:37:42;;;;;;;4.77;1.60;;;;;;;15.05;75.69;149863.81;4952411;28;20239;-62
2023/07/14 02:40:10;;;;;;;4.03;1.73;;;;;;;15.01;76.38;149855.09;4958720;28;20226;-62
2023/07/14 02:42:38;;;;;;;2.90;1.53;;;;;;;14.90;77.15;149828.84;4960116;28;20238;-62
2023/07/14 02:45:08;;;;;;;4.83;1.60;;;;;;;14.81;77.45;149806.41;4954266;28;20232;-62
2023/07/14 02:47:39;;;;;;;4.30;1.60;;;;;;;14.75;79.69;149792.63;4957381;28;20273;-62
2023/07/14 02:50:07;;;;;;;5.17;1.70;;;;;;;14.59;80.49;149752.63;4954971;28;20226;-62
2023/07/14 02:52:35;;;;;;;3.27;1.60;;;;;;;14.51;80.92;149733.94;4946794;28;20317;-62
2023/07/14 02:55:02;;;;;;;7.03;1.80;;;;;;;14.39;81.69;149705.19;4955883;28;20223;-62
2023/07/14 02:57:29;;;;;;;4.63;1.60;;;;;;;14.31;82.19;149685.22;4957968;28;20292;-62
2023/07/14 02:59:56;;;;;;;3.33;1.63;;;;;;;14.25;83.26;149670.28;4955741;28;20234;-62
2023/07/14 03:05:06;;;;;;;3.43;2.00;;;;;;;14.17;84.06;149652.78;5118703;23;20277;-62
2023/07/14 03:07:34;;;;;;;5.93;2.00;;;;;;;14.08;83.56;149630.31;4978271;28;20250;-62
2023/07/14 03:10:01;;;;;;;4.13;1.97;;;;;;;14.01;84.20;149614.06;4984107;28;20226;-62
2023/07/14 03:12:28;;;;;;;4.03;1.67;;;;;;;13.99;84.72;149607.84;4964869;28;20229;-62
2023/07/14 03:14:55;;;;;;;3.33;1.73;;;;;;;13.94;84.40;149596.59;4961483;28;20246;-62
2023/07/14 03:17:21;;;;;;;4.33;2.13;;;;;;;13.88;84.91;149582.88;4984052;28;20238;-62
2023/07/14 03:19:48;;;;;;;5.37;1.70;;;;;;;13.81;84.46;149565.41;4980546;28;20234;-62
2023/07/14 03:22:16;;;;;;;4.53;2.00;;;;;;;13.84;85.02;149571.63;4979656;28;20248;-62
2023/07/14 03:24:43;;;;;;;5.60;2.50;;;;;;;13.82;85.71;149567.91;4971991;28;20242;-62
2023/07/14 03:27:09;;;;;;;11.13;2.20;;;;;;;13.81;86.26;149564.13;4963837;28;20806;-62
2023/07/14 03:29:36;;;;;;;8.10;2.03;;;;;;;13.76;86.35;149552.94;4980698;28;20320;-62
2023/07/14 03:32:04;;;;;;;5.30;2.10;;;;;;;13.77;86.35;149555.44;5217625;22;20224;-61
2023/07/14 03:34:30;;;;;;;3.63;2.00;;;;;;;13.72;86.71;149544.22;5012160;28;20239;-62
2023/07/14 03:36:57;;;;;;;6.47;1.70;;;;;;;13.72;87.81;149544.22;5014011;28;20275;-62
2023/07/14 03:39:26;;;;;;;2.73;1.87;;;;;;;13.79;88.10;149559.16;5016454;28;20235;-62
2023/07/14 03:41:55;;;;;;;6.37;1.90;;;;;;;13.81;87.97;149564.13;5004781;28;20240;-62
2023/07/14 03:44:22;;;;;;;3.40;1.90;;;;;;;13.80;87.54;149561.63;5003843;28;20232;-62
2023/07/14 03:46:49;;;;;;;6.77;1.90;;;;;;;13.84;86.41;149572.91;5005791;28;20231;-61
2023/07/14 03:49:15;;;;;;;4.23;1.90;;;;;;;13.86;85.47;149576.63;5007624;28;20633;-61
2023/07/14 03:51:42;;;;;;;6.17;2.00;;;;;;;13.86;87.42;149576.63;5005711;28;20237;-61
2023/07/14 03:54:10;;;;;;;4.73;2.00;;;;;;;13.97;86.84;149602.84;5018144;28;20242;-62
2023/07/14 03:56:38;;;;;;;6.47;2.10;;;;;;;14.05;84.98;149622.81;5007287;28;20288;-62
2023/07/14 03:59:04;;;;;;;6.87;2.00;;;;;;;14.07;84.26;149627.81;5004111;28;20246;-62
2023/07/14 04:01:31;;;;;;;4.30;1.50;;;;;;;14.13;84.94;149642.81;5015281;28;20246;-62
2023/07/14 04:03:58;;;;;;;2.30;1.37;;;;;;;14.22;85.94;149662.78;5004005;28;20675;-62
2023/07/14 04:06:24;;;;;;;2.47;1.50;;;;;;;14.41;85.64;149710.19;5007090;28;20583;-62
2023/07/14 04:08:52;;;;;;;2.67;1.73;;;;;;;14.51;86.83;149733.94;5009630;28;20616;-62
2023/07/14 04:11:19;;;;;;;3.03;1.70;;;;;;;14.67;86.00;149772.63;4998598;28;20316;-62
2023/07/14 04:13:47;;;;;;;3.07;1.57;;;;;;;14.81;85.87;149805.13;5005226;28;20244;-62
2023/07/14 04:16:14;;;;;;;1.90;1.50;;;;;;;14.86;85.74;149818.84;5004137;28;20288;-62
2023/07/14 04:18:40;;;;;;;2.77;1.50;;;;;;;14.94;84.78;149836.34;5005088;28;20301;-62
2023/07/14 04:21:13;;;;;;;2.60;1.50;;;;;;;15.02;84.42;149856.31;5002853;28;22523;-62
2023/07/14 04:23:41;;;;;;;4.70;2.07;;;;;;;15.09;83.83;149873.81;5006094;28;20233;-62
2023/07/14 04:26:14;;;;;;;5.90;1.60;;;;;;;15.17;84.49;149893.78;5003919;28;20310;-62
2023/07/14 04:28:40;;;;;;;4.37;1.60;;;;;;;15.28;84.36;149920.06;5006516;28;20233;-62
2023/07/14 04:31:11;;;;;;;3.27;1.43;;;;;;;15.40;83.34;149948.75;5003973;28;28744;-62
2023/07/14 04:33:38;;;;;;;4.70;1.73;;;;;;;15.49;82.77;149969.97;5006294;28;20294;-62
2023/07/14 04:36:05;;;;;;;5.90;1.40;;;;;;;15.64;81.77;150006.25;5004385;28;20221;-61
2023/07/14 04:38:32;;;;;;;3.27;1.60;;;;;;;15.75;80.47;150033.72;5006324;28;20237;-62
2023/07/14 04:40:58;;;;;;;4.17;1.60;;;;;;;15.90;80.32;150070.00;5003442;28;20696;-62
2023/07/14 04:43:25;;;;;;;4.20;1.70;;;;;;;16.08;78.47;150112.50;5006210;28;20265;-62
2023/07/14 04:45:52;;;;;;;3.07;1.50;;;;;;;16.17;79.08;150135.00;5003488;28;20644;-62
2023/07/14 04:48:23;;;;;;;3.53;1.60;;;;;;;16.27;76.29;150157.50;5006086;28;20317;-62
2023/07/14 04:50:50;;;;;;;3.03;1.57;;;;;;;16.33;77.88;150173.72;5005503;28;20233;-62
2023/07/14 04:53:17;;;;;;;4.50;1.60;;;;;;;16.34;78.93;150176.22;5003868;28;20240;-62
2023/07/14 04:55:45;;;;;;;4.97;1.87;;;;;;;16.38;77.78;150186.22;5004664;28;20250;-62
2023/07/14 04:58:14;;;;;;;3.53;1.60;;;;;;;16.42;77.42;150195.00;5003402;28;20246;-62
2023/07/14 05:00:43;;;;;;;4.80;1.80;;;;;;;16.50;78.06;150213.72;5005850;28;20245;-62
2023/07/14 05:03:10;;;;;;;3.60;1.80;;;;;;;16.57;77.85;150229.94;5002663;28;20234;-62
2023/07/14 05:05:38;;;;;;;3.87;1.70;;;;;;;16.61;78.88;150239.94;5006255;28;20243;-62
2023/07/14 05:08:05;;;;;;;4.43;1.93;;;;;;;16.62;79.30;150242.44;5003008;28;20373;-62
2023/07/14 05:10:32;;;;;;;6.23;2.00;;;;;;;16.67;78.57;150256.22;5006131;28;20231;-62
2023/07/14 05:12:59;;;;;;;4.20;1.70;;;;;;;16.74;77.59;150272.47;5002275;28;20320;-63
2023/07/14 05:15:26;;;;;;;3.43;1.70;;;;;;;16.76;77.39;150277.47;5005984;28;20237;-63
2023/07/14 05:17:53;;;;;;;5.87;1.83;;;;;;;16.83;76.24;150293.75;5002870;28;20719;-63
2023/07/14 05:20:21;;;;;;;3.87;2.03;;;;;;;16.89;74.13;150308.75;5005865;28;20288;-62
2023/07/14 05:22:53;;;;;;;5.17;1.77;;;;;;;17.04;75.57;150343.75;5005969;28;20292;-62
2023/07/14 05:25:20;;;;;;;6.50;1.80;;;;;;;17.07;75.20;150351.25;5002907;28;20649;-62
2023/07/14 05:27:48;;;;;;;3.60;1.67;;;;;;;17.16;75.13;150373.78;4974659;28;20261;-62
2023/07/14 05:30:17;;;;;;;2.67;1.83;;;;;;;17.26;75.78;150397.56;5002340;28;20312;-62
2023/07/14 05:32:45;;;;;;;4.33;1.60;;;;;;;17.38;75.91;150427.59;5004405;28;20233;-62
2023/07/14 05:35:13;;;;;;;3.43;1.83;;;;;;;17.44;75.70;150441.31;5001279;28;20256;-62
2023/07/14 05:37:40;;;;;;;3.80;1.90;;;;;;;17.59;75.47;150476.34;5003381;28;20297;-62
2023/07/14 05:40:10;;;;;;;3.33;1.67;;;;;;;17.76;74.78;150517.63;5001169;28;20236;-62
2023/07/14 05:42:37;;;;;;;3.40;1.70;;;;;;;18.02;73.30;150581.44;5003407;28;20264;-62
2023/07/14 05:45:04;;;;;;;3.00;1.63;;;;;;;18.24;73.78;150635.28;5001856;28;20237;-62
2023/07/14 05:47:31;;;;;;;3.97;1.87;;;;;;;18.47;71.52;150690.34;5005199;28;20243;-62
2023/07/14 05:49:58;;;;;;;5.00;1.50;;;;;;;18.61;70.12;150724.13;4984333;28;20228;-62
2023/07/14 05:52:25;;;;;;;4.40;1.83;;;;;;;18.79;69.71;150767.91;5004824;28;20775;-62
2023/07/14 05:54:51;;;;;;;3.13;1.80;;;;;;;18.91;68.38;150796.72;5001074;28;20638;-63
2023/07/14 05:57:19;;;;;;;3.17;2.07;;;;;;;19.05;65.76;150830.56;5005032;28;20857;-63
2023/07/14 05:59:46;;;;;;;4.30;1.70;;;;;;;19.26;66.72;150880.66;5004611;28;20598;-63
2023/07/14 06:02:14;;;;;;;3.83;2.07;;;;;;;19.42;65.54;150920.72;5001749;28;20228;-63
2023/07/14 06:04:40;;;;;;;2.27;1.63;;;;;;;19.57;65.12;150957.03;5003468;28;20654;-63
2023/07/14 06:07:08;;;;;;;3.73;2.30;;;;;;;19.60;62.38;150963.31;4984015;28;20265;-63
2023/07/14 06:09:35;;;;;;;5.90;2.17;;;;;;;19.72;62.67;150993.31;5004480;28;20230;-63
2023/07/14 06:12:04;;;;;;;4.20;2.00;;;;;;;19.78;61.87;151007.13;5001227;28;20236;-63
2023/07/14 06:14:32;;;;;;;5.27;1.83;;;;;;;19.79;60.20;151009.63;5004064;28;20240;-63
2023/07/14 06:16:58;;;;;;;3.93;1.73;;;;;;;19.69;60.04;150984.56;4984264;28;20233;-63
2023/07/14 06:19:25;;;;;;;2.83;1.87;;;;;;;19.66;60.47;150977.06;5001845;28;20241;-63
2023/07/14 06:21:52;;;;;;;2.13;1.50;;;;;;;19.67;60.23;150979.56;4991881;28;20224;-63
2023/07/14 06:24:19;;;;;;;3.40;1.77;;;;;;;19.65;61.13;150974.56;5002187;28;20243;-63
2023/07/14 06:26:45;;;;;;;3.70;1.83;;;;;;;19.70;62.93;150987.06;5000949;28;20640;-62
2023/07/14 06:29:12;;;;;;;2.60;1.90;;;;;;;19.76;61.33;151003.34;5001199;28;20222;-63
2023/07/14 06:31:40;;;;;;;3.40;2.10;;;;;;;19.75;60.48;151000.84;5003776;28;20240;-63
2023/07/14 06:34:07;;;;;;;10.80;2.23;;;;;;;19.73;59.67;150995.81;4999867;28;20244;-61
2023/07/14 06:36:34;;;;;;;6.80;1.97;;;;;;;19.78;59.92;151007.13;5006115;28;20636;-61
2023/07/14 06:39:03;;;;;;;4.70;2.10;;;;;;;19.95;60.05;151048.47;5002316;28;20233;-61
2023/07/14 06:41:30;;;;;;;5.60;2.20;;;;;;;19.98;60.24;151056.00;5003973;28;20783;-61
2023/07/14 06:43:57;;;;;;;3.83;2.27;;;;;;;19.98;61.61;151056.00;5001540;28;20235;-61
2023/07/14 06:46:24;;;;;;;3.43;2.00;;;;;;;20.13;61.67;151091.06;5004294;28;20240;-61
2023/07/14 06:48:52;;;;;;;6.00;2.37;;;;;;;20.20;61.38;151109.84;5003708;28;20231;-61
2023/07/14 06:51:18;;;;;;;4.60;2.17;;;;;;;20.42;62.50;151162.47;5002932;28;20243;-63
2023/07/14 06:53:49;;;;;;;8.33;2.53;;;;;;;20.61;61.18;151208.84;5009018;28;20234;-63
2023/07/14 06:56:16;;;;;;;6.83;2.83;;;;;;;20.74;61.13;151238.88;4993544;28;20237;-61
2023/07/14 06:58:43;;;;;;;6.10;2.60;;;;;;;20.92;60.77;151282.81;5004412;28;20766;-60
2023/07/14 07:01:14;;;;;;;3.37;2.20;;;;;;;21.03;60.68;151310.41;4999909;28;20261;-61
2023/07/14 07:03:41;;;;;;;5.00;2.43;;;;;;;21.03;61.18;151309.13;5003072;28;20720;-63
2023/07/14 07:06:33;;;;;;;6.73;2.50;;;;;;;21.08;61.19;151322.94;4987781;28;20583;-63
2023/07/14 07:09:00;;;;;;;7.80;3.30;;;;;;;20.99;60.48;151300.38;4994100;28;20592;-63
2023/07/14 07:11:26;;;;;;;5.93;3.20;;;;;;;20.89;61.41;151275.31;5007516;28;20241;-64
2023/07/14 07:13:53;;;;;;;6.23;3.33;;;;;;;20.91;62.04;151280.31;5004476;28;20234;-64
2023/07/14 07:16:20;;;;;;;6.27;3.47;;;;;;;20.91;60.14;151280.31;4994960;28;20700;-64
2023/07/14 07:18:46;;;;;;;9.63;3.70;;;;;;;20.91;60.32;151281.56;4995137;28;20241;-64
2023/07/14 07:21:13;;;;;;;8.60;4.47;;;;;;;20.94;58.84;151287.84;5004562;28;20245;-63
2023/07/14 07:23:41;;;;;;;6.77;3.67;;;;;;;20.93;59.96;151285.34;5007032;28;20701;-63
2023/07/14 07:26:13;;;;;;;8.43;4.20;;;;;;;20.95;60.34;151290.34;5004151;28;20236;-61
2023/07/14 07:28:40;;;;;;;7.37;4.03;;;;;;;20.98;59.86;151296.59;5006767;28;20234;-61
2023/07/14 07:31:14;;;;;;;8.73;3.90;;;;;;;21.19;59.38;151349.25;5001659;28;20237;-62
2023/07/14 07:33:42;;;;;;;9.07;3.70;;;;;;;21.39;58.31;151398.09;5006713;28;20260;-63
2023/07/14 07:36:17;;;;;;;8.77;3.77;;;;;;;21.81;58.12;151498.47;4986635;28;20230;-64
2023/07/14 07:38:49;;;;;;;9.03;3.67;;;;;;;22.14;54.99;151577.44;4988253;28;20235;-63
2023/07/14 07:41:17;;;;;;;9.87;3.20;;;;;;;22.56;54.76;151681.59;5004255;28;20315;-63
2023/07/14 07:43:44;;;;;;;5.17;3.60;;;;;;;22.74;54.50;151724.22;5006878;28;20782;-63
2023/07/14 07:46:14;;;;;;;10.53;3.67;;;;;;;23.21;53.77;151838.41;4976884;28;20237;-63
2023/07/14 07:48:42;;;;;;;13.03;3.90;;;;;;;23.47;53.03;151901.19;5006876;28;20235;-63
2023/07/14 07:51:14;;;;;;;7.00;2.87;;;;;;;23.19;53.09;151833.38;4982995;28;20237;-63
2023/07/14 07:53:41;;;;;;;6.17;3.03;;;;;;;23.29;52.72;151858.53;5001238;28;20236;-64
2023/07/14 07:56:34;;;;;;;7.67;3.20;;;;;;;23.55;51.98;151921.28;4997591;28;20243;-64
2023/07/14 07:59:01;;;;;;;12.10;3.37;;;;;;;23.26;52.35;151849.75;4983349;28;20237;-64
2023/07/14 08:01:28;;;;;;;6.30;3.50;;;;;;;23.30;51.73;151859.81;4998314;28;20286;-64
2023/07/14 08:03:55;;;;;;;9.67;3.20;;;;;;;23.15;51.78;151824.63;5002778;28;20608;-64
2023/07/14 08:06:24;;;;;;;4.87;2.67;;;;;;;23.41;51.14;151887.38;4998754;28;20262;-64
2023/07/14 08:08:51;;;;;;;8.23;3.07;;;;;;;23.47;50.06;151899.91;5005415;28;20263;-64
2023/07/14 08:11:17;;;;;;;4.93;2.83;;;;;;;23.58;50.87;151928.81;5000699;28;20237;-64
2023/07/14 08:13:45;;;;;;;7.90;3.10;;;;;;;23.56;50.99;151922.50;4993528;28;20286;-64
2023/07/14 08:16:14;;;;;;;6.20;3.27;;;;;;;23.77;49.04;151972.72;4970414;28;20235;-64
2023/07/14 08:18:40;;;;;;;8.53;3.47;;;;;;;23.64;48.91;151941.34;5005771;28;20602;-64
2023/07/14 08:21:13;;;;;;;7.83;2.77;;;;;;;23.83;49.99;151987.78;5002535;28;20235;-64
2023/07/14 08:23:40;;;;;;;7.50;2.73;;;;;;;23.67;50.09;151950.13;5005184;28;20799;-64
2023/07/14 08:26:16;;;;;;;6.27;2.50;;;;;;;24.09;49.90;152051.84;4989870;28;20241;-64
2023/07/14 08:28:44;;;;;;;8.50;2.93;;;;;;;24.37;49.53;152119.63;4982785;28;20312;-66
2023/07/14 08:31:14;;;;;;;5.87;2.43;;;;;;;24.65;49.37;152186.16;4994868;28;20243;-66
2023/07/14 08:33:43;;;;;;;7.10;2.50;;;;;;;24.89;46.88;152246.50;4998868;28;20223;-66
2023/07/14 08:36:14;;;;;;;8.13;3.20;;;;;;;24.58;48.05;152169.88;4997236;28;20233;-68
2023/07/14 08:38:41;;;;;;;5.57;3.20;;;;;;;24.46;48.05;152142.22;4991763;28;20240;-69
2023/07/14 08:41:25;;;;;;;6.67;2.70;;;;;;;24.61;48.16;152178.63;4974635;28;20852;-66
2023/07/14 08:44:17;;;;;;;8.43;2.57;;;;;;;24.41;48.92;152128.41;4997361;28;20237;-66
2023/07/14 08:46:54;;;;;;;6.30;2.90;;;;;;;23.89;49.88;152002.84;4990331;28;20240;-68
2023/07/14 08:49:25;;;;;;;6.20;2.63;;;;;;;24.25;48.97;152090.78;5002397;28;20683;-68
2023/07/14 08:51:57;;;;;;;6.33;2.33;;;;;;;24.34;49.15;152112.09;4997674;28;20230;-66
2023/07/14 08:54:27;;;;;;;6.47;2.43;;;;;;;23.59;49.64;151931.31;4981963;28;20719;-67
2023/07/14 08:56:54;;;;;;;8.70;2.60;;;;;;;24.02;49.96;152035.53;4998772;28;20237;-67
2023/07/14 08:59:32;;;;;;;10.17;2.70;;;;;;;24.11;50.38;152056.84;5001191;28;20355;-66
2023/07/14 09:02:03;;;;;;;7.87;2.57;;;;;;;23.85;50.09;151994.03;4994126;28;21095;-66
2023/07/14 09:04:39;;;;;;;4.40;2.50;;;;;;;24.09;49.76;152050.59;4995607;28;20609;-68
2023/07/14 09:07:27;;;;;;;5.53;2.73;;;;;;;24.52;48.90;152154.78;4929105;28;20238;-68
2023/07/14 09:10:00;;;;;;;6.20;2.47;;;;;;;24.42;49.34;152130.91;4962013;28;20214;-68
2023/07/14 09:12:40;;;;;;;4.53;2.20;;;;;;;24.56;48.76;152166.06;4957755;28;20366;-68
2023/07/14 09:15:28;;;;;;;4.67;2.50;;;;;;;24.58;48.69;152171.09;4956462;28;20576;-68
2023/07/14 09:18:18;;;;;;;7.07;2.27;;;;;;;24.70;49.02;152200.00;4947224;28;20245;-68
2023/07/14 09:21:10;;;;;;;6.07;2.50;;;;;;;24.97;49.06;152264.09;4973360;28;20246;-67
2023/07/14 09:24:03;;;;;;;7.33;2.53;;;;;;;24.93;49.00;152255.25;4872352;28;20568;-68
2023/07/14 09:26:34;;;;;;;4.97;2.40;;;;;;;25.01;48.87;152274.13;4935777;28;20342;-67
2023/07/14 09:29:17;;;;;;;6.00;2.30;;;;;;;25.21;47.81;152323.09;4876973;28;20247;-67
2023/07/14 09:31:53;;;;;;;8.47;2.20;;;;;;;25.06;49.02;152286.69;4973334;28;20231;-67
2023/07/14 09:34:27;;;;;;;6.47;2.47;;;;;;;24.75;48.67;152211.34;4998071;28;20245;-67
2023/07/14 09:36:55;;;;;;;6.50;2.33;;;;;;;24.69;49.26;152196.22;4996475;28;20284;-67
2023/07/14 09:39:30;;;;;;;5.80;2.30;;;;;;;24.76;50.23;152215.13;5001211;28;20217;-65
2023/07/14 09:42:00;;;;;;;5.43;2.50;;;;;;;24.95;49.73;152259.06;4978028;28;20268;-66
2023/07/14 09:44:26;;;;;;;4.77;2.10;;;;;;;25.43;49.23;152377.16;5000023;28;20241;-66
2023/07/14 09:46:59;;;;;;;3.73;2.57;;;;;;;25.36;46.02;152359.56;4978504;28;20238;-66
2023/07/14 09:49:33;;;;;;;5.72;1.98;;;;;;;25.77;46.35;152458.84;5000595;28;20242;-65
2023/07/14 09:52:02;;;;;;;5.17;3.17;;;;;;;26.08;44.22;152534.19;4997344;28;20242;-65
2023/07/14 09:54:29;;;;;;;7.90;2.28;;;;;;;25.88;45.08;152485.19;5000516;28;20231;-65
2023/07/14 09:57:02;;;;;;;5.93;2.00;;;;;;;25.75;45.22;152455.03;4995676;28;20237;-66
2023/07/14 09:59:29;;;;;;;3.72;1.90;;;;;;;26.19;46.04;152561.88;4998897;28;20335;-67
2023/07/14 10:04:39;;;;;;;7.93;2.17;;;;;;;25.86;43.97;152481.44;5325418;23;20263;-68
2023/07/14 10:07:33;;;;;;;2.70;2.03;;;;;;;25.53;45.36;152399.75;4944813;28;20684;-66
2023/07/14 10:10:07;;;;;;;4.10;1.83;;;;;;;25.93;45.58;152499.06;4947981;28;20754;-66
2023/07/14 10:12:41;;;;;;;5.07;1.85;;;;;;;25.32;45.47;152349.50;4952413;28;20239;-66
2023/07/14 10:15:30;;;;;;;8.55;2.28;;;;;;;25.76;44.29;152457.56;4932046;28;20641;-66
2023/07/14 10:17:59;;;;;;;5.17;2.17;;;;;;;25.74;45.58;152451.28;4934422;28;20231;-66
2023/07/14 10:20:28;;;;;;;4.90;2.10;;;;;;;26.03;44.30;152521.63;4934507;28;20260;-66
2023/07/14 10:22:57;;;;;;;6.93;2.05;;;;;;;26.28;44.71;152583.28;4929490;28;20700;-66
2023/07/14 10:25:25;;;;;;;5.55;2.00;;;;;;;26.71;44.40;152686.31;4935492;28;20241;-66
2023/07/14 10:27:57;;;;;;;9.00;2.33;;;;;;;26.76;42.77;152698.88;4933500;28;20239;-66
2023/07/14 10:30:41;;;;;;;8.80;2.17;;;;;;;26.80;41.34;152708.94;4927534;28;20270;-66
2023/07/14 10:33:16;;;;;;;8.18;2.40;;;;;;;26.92;42.20;152737.91;4928618;28;20359;-66
2023/07/14 10:35:44;;;;;;;4.65;2.10;;;;;;;26.44;44.25;152620.97;4932859;28;20315;-66
2023/07/14 10:38:17;;;;;;;4.18;2.20;;;;;;;26.26;43.30;152578.25;4930979;28;21248;-66
2023/07/14 10:40:57;;;;;;;5.90;2.00;;;;;;;26.62;42.77;152664.97;4930511;28;20246;-66
2023/07/14 10:43:29;;;;;;;5.43;2.00;;;;;;;26.42;42.73;152615.97;4933657;29;20718;-66
2023/07/14 10:45:59;;;;;;;7.93;2.00;;;;;;;26.84;42.09;152717.81;4933285;28;20300;-66
2023/07/14 10:48:30;;;;;;;4.45;1.60;;;;;;;26.70;42.49;152685.06;4926474;28;20653;-66
2023/07/14 10:51:03;;;;;;;10.80;2.22;;;;;;;26.71;43.11;152687.59;4934936;28;20330;-67
2023/07/14 10:53:35;;;;;;;4.93;1.97;;;;;;;27.18;41.55;152802.03;4935928;28;20259;-67
2023/07/14 10:56:15;;;;;;;5.72;1.80;;;;;;;27.52;41.96;152883.78;4934022;28;20228;-66
2023/07/14 10:58:49;;;;;;;6.28;2.50;;;;;;;27.88;41.48;152971.81;4927253;28;20255;-66
2023/07/14 11:01:23;;;;;;;7.13;2.00;;;;;;;27.48;42.29;152873.69;4933381;28;20247;-67
2023/07/14 11:03:56;;;;;;;3.42;2.15;;;;;;;27.06;43.60;152771.84;4935679;28;20260;-67
2023/07/14 11:06:28;;;;;;;5.10;2.00;;;;;;;27.24;42.66;152815.84;4934572;28;20566;-67
2023/07/14 11:08:57;;;;;;;4.20;2.00;;;;;;;27.07;43.09;152774.34;4931357;28;20360;-67
2023/07/14 11:11:30;;;;;;;3.95;2.28;;;;;;;27.18;41.95;152800.75;4933714;28;20704;-67
2023/07/14 11:14:08;;;;;;;6.47;2.30;;;;;;;27.30;42.88;152830.91;4933249;28;20619;-67
2023/07/14 11:16:43;;;;;;;4.60;1.77;;;;;;;27.62;44.13;152907.66;4934086;28;20226;-67
2023/07/14 11:19:16;;;;;;;4.03;1.60;;;;;;;28.10;43.15;153025.91;4932998;28;20248;-67
2023/07/14 11:21:49;;;;;;;4.10;1.80;;;;;;;28.24;40.10;153059.88;4916065;29;20233;-66
2023/07/14 11:24:20;;;;;;;3.63;1.80;;;;;;;28.42;39.45;153102.66;4930698;28;20246;-66
2023/07/14 11:27:06;;;;;;;3.97;2.03;;;;;;;28.39;39.34;153095.13;4934416;28;20238;-65
2023/07/14 11:29:39;;;;;;;4.10;2.13;;;;;;;28.10;40.48;153025.91;4932196;28;20308;-67
2023/07/14 11:32:17;;;;;;;7.27;2.07;;;;;;;27.63;41.85;152910.16;4930595;28;20237;-67
2023/07/14 11:34:55;;;;;;;4.07;2.10;;;;;;;27.61;42.03;152905.13;4932380;28;20252;-67
2023/07/14 11:37:36;;;;;;;6.93;2.47;;;;;;;27.52;42.04;152883.78;4931774;28;20773;-67
2023/07/14 11:40:13;;;;;;;7.65;2.00;;;;;;;27.59;42.13;152901.41;4931584;28;20249;-67
2023/07/14 11:42:40;;;;;;;4.45;2.10;;;;;;;27.66;40.43;152917.72;4933329;28;20724;-67
2023/07/14 11:45:21;;;;;;;3.22;1.95;;;;;;;27.61;38.91;152905.13;4930842;28;20820;-67